RRR1760 EGGD-EGHQ
Flight info
| Callsign | RRR1760 |
|---|---|
| Flight time | 2h 4m |
| Altitude | 8000 |
| Route | EXMOR DCT FF30 DCT ML30 |
| Aircraft | A20N/M-SDE2E3FGHIRWXY/LB1 |
Departure
| Time | 2026-05-09 19:23 |
|---|---|
| Airport | Bristol Airport (EGGD) |
Arrival
| Time | 2026-05-09 21:27 |
|---|---|
| Airport | Cornwall Airport Newquay (EGHQ) |
| Time | Latitude | Longitude | Altitude | Speed | Heading |
|---|---|---|---|---|---|
| 2026-05-09 19:19 | 51.38496 | -2.72179 | 617 ft | 0 kts | 356° |
| 2026-05-09 19:20 | 51.38498 | -2.72183 | 629 ft | 0 kts | 330° |
| 2026-05-09 19:20 | 51.38489 | -2.72194 | 628 ft | 5 kts | 199° |
| 2026-05-09 19:21 | 51.38432 | -2.72253 | 622 ft | 15 kts | 238° |
| 2026-05-09 19:21 | 51.38413 | -2.72499 | 618 ft | 32 kts | 266° |
| 2026-05-09 19:21 | 51.38394 | -2.72945 | 626 ft | 45 kts | 265° |
| 2026-05-09 19:21 | 51.38380 | -2.73218 | 631 ft | 11 kts | 260° |
| 2026-05-09 19:22 | 51.38311 | -2.73346 | 624 ft | 24 kts | 187° |
| 2026-05-09 19:22 | 51.38224 | -2.73070 | 629 ft | 56 kts | 85° |
| 2026-05-09 19:22 | 51.38266 | -2.71996 | 628 ft | 133 kts | 88° |
| 2026-05-09 19:22 | 51.38315 | -2.70310 | 1045 ft | 157 kts | 81° |
| 2026-05-09 19:23 | 51.38392 | -2.68574 | 1976 ft | 156 kts | 81° |
| 2026-05-09 19:23 | 51.38449 | -2.66841 | 2880 ft | 164 kts | 83° |
| 2026-05-09 19:23 | 51.38514 | -2.64935 | 3489 ft | 180 kts | 84° |
| 2026-05-09 19:23 | 51.38583 | -2.62806 | 4009 ft | 201 kts | 85° |
| 2026-05-09 19:24 | 51.38657 | -2.60499 | 4482 ft | 224 kts | 85° |
| 2026-05-09 19:24 | 51.38745 | -2.57886 | 5076 ft | 244 kts | 86° |
| 2026-05-09 19:24 | 51.38631 | -2.55111 | 5707 ft | 259 kts | 104° |
| 2026-05-09 19:24 | 51.37749 | -2.52546 | 5984 ft | 266 kts | 132° |
| 2026-05-09 19:25 | 51.36156 | -2.50899 | 6355 ft | 289 kts | 159° |
| 2026-05-09 19:25 | 51.34091 | -2.50494 | 6818 ft | 315 kts | 183° |
| 2026-05-09 19:25 | 51.31898 | -2.51510 | 7213 ft | 342 kts | 206° |
| 2026-05-09 19:25 | 51.29958 | -2.53899 | 7550 ft | 367 kts | 227° |
| 2026-05-09 19:26 | 51.28571 | -2.57357 | 7841 ft | 388 kts | 246° |
| 2026-05-09 19:26 | 51.27869 | -2.61651 | 8065 ft | 395 kts | 264° |
| 2026-05-09 19:26 | 51.27982 | -2.65965 | 8075 ft | 395 kts | 282° |
| 2026-05-09 19:26 | 51.28760 | -2.70153 | 8074 ft | 394 kts | 289° |
| 2026-05-09 19:27 | 51.29461 | -2.74380 | 8070 ft | 392 kts | 278° |
| 2026-05-09 19:27 | 51.29458 | -2.78728 | 8077 ft | 393 kts | 261° |
| 2026-05-09 19:27 | 51.28658 | -2.82885 | 8077 ft | 392 kts | 243° |
| 2026-05-09 19:27 | 51.27129 | -2.86465 | 8075 ft | 390 kts | 226° |
| 2026-05-09 19:28 | 51.25016 | -2.89146 | 8097 ft | 388 kts | 210° |
| 2026-05-09 19:28 | 51.22614 | -2.91135 | 8093 ft | 388 kts | 202° |
| 2026-05-09 19:28 | 51.20142 | -2.92709 | 8268 ft | 387 kts | 200° |
| 2026-05-09 19:28 | 51.17620 | -2.94273 | 8569 ft | 389 kts | 200° |
| 2026-05-09 19:29 | 51.15082 | -2.95833 | 8870 ft | 391 kts | 200° |
| 2026-05-09 19:29 | 51.12541 | -2.97386 | 9214 ft | 392 kts | 200° |
| 2026-05-09 19:29 | 51.09972 | -2.98948 | 9622 ft | 394 kts | 200° |
| 2026-05-09 19:29 | 51.07432 | -3.00480 | 9965 ft | 395 kts | 200° |
| 2026-05-09 19:30 | 51.04864 | -3.02026 | 10060 ft | 395 kts | 200° |
| 2026-05-09 19:30 | 51.02295 | -3.03617 | 10066 ft | 396 kts | 204° |
| 2026-05-09 19:30 | 50.99909 | -3.05821 | 10070 ft | 397 kts | 214° |
| 2026-05-09 19:30 | 50.97659 | -3.08377 | 10070 ft | 397 kts | 215° |
| 2026-05-09 19:31 | 50.95414 | -3.10937 | 10069 ft | 397 kts | 215° |
| 2026-05-09 19:31 | 50.93169 | -3.13499 | 10067 ft | 397 kts | 215° |
| 2026-05-09 19:31 | 50.90934 | -3.16053 | 10066 ft | 397 kts | 215° |
| 2026-05-09 19:31 | 50.88717 | -3.18582 | 10060 ft | 396 kts | 215° |
| 2026-05-09 19:32 | 50.86528 | -3.21066 | 10056 ft | 376 kts | 214° |
| 2026-05-09 19:32 | 50.84392 | -3.23277 | 9957 ft | 357 kts | 210° |
| 2026-05-09 19:32 | 50.82300 | -3.25261 | 9792 ft | 342 kts | 210° |
| 2026-05-09 19:32 | 50.80300 | -3.27155 | 9624 ft | 328 kts | 210° |
| 2026-05-09 19:33 | 50.78384 | -3.28983 | 9472 ft | 315 kts | 210° |
| 2026-05-09 19:33 | 50.76544 | -3.30748 | 9337 ft | 303 kts | 210° |
| 2026-05-09 19:33 | 50.74781 | -3.32441 | 9193 ft | 291 kts | 210° |
| 2026-05-09 19:33 | 50.73080 | -3.34106 | 9074 ft | 286 kts | 212° |
| 2026-05-09 19:34 | 50.71443 | -3.35937 | 8919 ft | 290 kts | 215° |
| 2026-05-09 19:34 | 50.69813 | -3.37816 | 8804 ft | 289 kts | 215° |
| 2026-05-09 19:34 | 50.68197 | -3.39682 | 8675 ft | 288 kts | 215° |
| 2026-05-09 19:34 | 50.66581 | -3.41546 | 8542 ft | 288 kts | 215° |
| 2026-05-09 19:35 | 50.64967 | -3.43409 | 8423 ft | 288 kts | 215° |
| 2026-05-09 19:35 | 50.63374 | -3.45254 | 8289 ft | 288 kts | 215° |
| 2026-05-09 19:35 | 50.61759 | -3.47126 | 8162 ft | 288 kts | 215° |
| 2026-05-09 19:35 | 50.60153 | -3.48993 | 8062 ft | 287 kts | 215° |
| 2026-05-09 19:36 | 50.58545 | -3.50864 | 8058 ft | 287 kts | 215° |
| 2026-05-09 19:36 | 50.56932 | -3.52735 | 8023 ft | 289 kts | 213° |
| 2026-05-09 19:36 | 50.55120 | -3.54011 | 7808 ft | 284 kts | 188° |
| 2026-05-09 19:36 | 50.53185 | -3.53913 | 7576 ft | 276 kts | 160° |
| 2026-05-09 19:37 | 50.51538 | -3.52478 | 7462 ft | 270 kts | 136° |
| 2026-05-09 19:37 | 50.50013 | -3.50757 | 7328 ft | 273 kts | 154° |
| 2026-05-09 19:37 | 50.48139 | -3.50200 | 7212 ft | 280 kts | 180° |
| 2026-05-09 19:37 | 50.46279 | -3.51015 | 7096 ft | 286 kts | 207° |
| 2026-05-09 19:38 | 50.44772 | -3.53116 | 6967 ft | 291 kts | 234° |
| 2026-05-09 19:38 | 50.43975 | -3.55958 | 6751 ft | 293 kts | 257° |
| 2026-05-09 19:38 | 50.43662 | -3.59166 | 6500 ft | 292 kts | 265° |
| 2026-05-09 19:38 | 50.43513 | -3.62319 | 6247 ft | 292 kts | 267° |
| 2026-05-09 19:39 | 50.43375 | -3.65489 | 5990 ft | 290 kts | 266° |
| 2026-05-09 19:39 | 50.43213 | -3.68648 | 5696 ft | 290 kts | 266° |
| 2026-05-09 19:39 | 50.43025 | -3.71821 | 5381 ft | 288 kts | 265° |
| 2026-05-09 19:39 | 50.42824 | -3.74914 | 5082 ft | 288 kts | 265° |
| 2026-05-09 19:40 | 50.42614 | -3.78022 | 4785 ft | 287 kts | 265° |
| 2026-05-09 19:40 | 50.42402 | -3.81128 | 4471 ft | 286 kts | 265° |
| 2026-05-09 19:40 | 50.42191 | -3.84201 | 4206 ft | 282 kts | 265° |
| 2026-05-09 19:40 | 50.41981 | -3.87274 | 4089 ft | 283 kts | 265° |
| 2026-05-09 19:41 | 50.41762 | -3.90347 | 4061 ft | 281 kts | 263° |
| 2026-05-09 19:41 | 50.41425 | -3.93374 | 4072 ft | 285 kts | 260° |
| 2026-05-09 19:41 | 50.41042 | -3.96410 | 4079 ft | 282 kts | 259° |
| 2026-05-09 19:41 | 50.40657 | -3.99448 | 4067 ft | 284 kts | 259° |
| 2026-05-09 19:42 | 50.40272 | -4.02491 | 4072 ft | 284 kts | 259° |
| 2026-05-09 19:42 | 50.39900 | -4.05428 | 4060 ft | 276 kts | 259° |
| 2026-05-09 19:42 | 50.39539 | -4.08286 | 4058 ft | 259 kts | 259° |
| 2026-05-09 19:42 | 50.39196 | -4.11036 | 4075 ft | 254 kts | 259° |
| 2026-05-09 19:43 | 50.38852 | -4.13758 | 4074 ft | 253 kts | 259° |
| 2026-05-09 19:43 | 50.38515 | -4.16451 | 4065 ft | 252 kts | 259° |
| 2026-05-09 19:43 | 50.38177 | -4.19155 | 4071 ft | 252 kts | 259° |
| 2026-05-09 19:43 | 50.37833 | -4.21853 | 4072 ft | 257 kts | 259° |
| 2026-05-09 19:44 | 50.37486 | -4.24601 | 4070 ft | 258 kts | 259° |
| 2026-05-09 19:44 | 50.37133 | -4.27387 | 4063 ft | 258 kts | 259° |
| 2026-05-09 19:44 | 50.36784 | -4.30132 | 4067 ft | 257 kts | 259° |
| 2026-05-09 19:44 | 50.36432 | -4.32886 | 4059 ft | 258 kts | 259° |
| 2026-05-09 19:45 | 50.36080 | -4.35639 | 4066 ft | 257 kts | 259° |
| 2026-05-09 19:45 | 50.35726 | -4.38391 | 4076 ft | 259 kts | 259° |
| 2026-05-09 19:45 | 50.35382 | -4.41073 | 4066 ft | 248 kts | 259° |
| 2026-05-09 19:45 | 50.35054 | -4.43650 | 4068 ft | 233 kts | 259° |
| 2026-05-09 19:46 | 50.34746 | -4.46089 | 4084 ft | 234 kts | 259° |
| 2026-05-09 19:46 | 50.34424 | -4.48582 | 4077 ft | 232 kts | 259° |
| 2026-05-09 19:46 | 50.34101 | -4.51073 | 4078 ft | 232 kts | 259° |
| 2026-05-09 19:46 | 50.33785 | -4.53554 | 3947 ft | 232 kts | 259° |
| 2026-05-09 19:47 | 50.33466 | -4.56020 | 3685 ft | 231 kts | 259° |
| 2026-05-09 19:47 | 50.33254 | -4.57642 | 3516 ft | 229 kts | 259° |
| 2026-05-09 19:47 | 50.32937 | -4.60072 | 3273 ft | 226 kts | 259° |
| 2026-05-09 19:47 | 50.32643 | -4.62464 | 3025 ft | 221 kts | 269° |
| 2026-05-09 19:48 | 50.32636 | -4.64784 | 2999 ft | 210 kts | 274° |
| 2026-05-09 19:48 | 50.32683 | -4.67085 | 3001 ft | 210 kts | 275° |
| 2026-05-09 19:48 | 50.32850 | -4.69327 | 3022 ft | 205 kts | 289° |
| 2026-05-09 19:48 | 50.33370 | -4.71405 | 3003 ft | 203 kts | 301° |
| 2026-05-09 19:49 | 50.34063 | -4.73321 | 3002 ft | 203 kts | 306° |
| 2026-05-09 19:49 | 50.34791 | -4.75193 | 3002 ft | 203 kts | 305° |
| 2026-05-09 19:49 | 50.35517 | -4.77099 | 2997 ft | 204 kts | 305° |
| 2026-05-09 19:49 | 50.36248 | -4.79014 | 2995 ft | 204 kts | 305° |
| 2026-05-09 19:50 | 50.36981 | -4.80930 | 2975 ft | 207 kts | 305° |
| 2026-05-09 19:50 | 50.37716 | -4.82861 | 2719 ft | 204 kts | 304° |
| 2026-05-09 19:50 | 50.38431 | -4.84735 | 2430 ft | 201 kts | 305° |
| 2026-05-09 19:50 | 50.39142 | -4.86603 | 2133 ft | 195 kts | 305° |
| 2026-05-09 19:51 | 50.39808 | -4.88355 | 1869 ft | 179 kts | 306° |
| 2026-05-09 19:51 | 50.40417 | -4.89955 | 1652 ft | 162 kts | 308° |
| 2026-05-09 19:51 | 50.40963 | -4.91391 | 1430 ft | 148 kts | 309° |
| 2026-05-09 19:51 | 50.41471 | -4.92722 | 1227 ft | 137 kts | 309° |
| 2026-05-09 19:52 | 50.41939 | -4.93947 | 1054 ft | 129 kts | 309° |
| 2026-05-09 19:52 | 50.42403 | -4.95164 | 895 ft | 130 kts | 309° |
| 2026-05-09 19:52 | 50.42868 | -4.96346 | 693 ft | 124 kts | 307° |
| 2026-05-09 19:52 | 50.43313 | -4.97537 | 530 ft | 129 kts | 308° |
| 2026-05-09 19:53 | 50.43771 | -4.98744 | 385 ft | 126 kts | 309° |
| 2026-05-09 19:53 | 50.44237 | -4.99973 | 393 ft | 151 kts | 302° |
| 2026-05-09 19:53 | 50.44808 | -5.01433 | 874 ft | 165 kts | 310° |
| 2026-05-09 19:53 | 50.45488 | -5.03104 | 1402 ft | 197 kts | 308° |
| 2026-05-09 19:54 | 50.46208 | -5.05096 | 2076 ft | 222 kts | 305° |
| 2026-05-09 19:54 | 50.47104 | -5.07275 | 2561 ft | 243 kts | 309° |
| 2026-05-09 19:54 | 50.48063 | -5.09454 | 2624 ft | 244 kts | 309° |
| 2026-05-09 19:54 | 50.49008 | -5.11618 | 2501 ft | 234 kts | 309° |
| 2026-05-09 19:55 | 50.49942 | -5.13758 | 2500 ft | 240 kts | 309° |
| 2026-05-09 19:55 | 50.51000 | -5.15701 | 2499 ft | 230 kts | 331° |
| 2026-05-09 19:55 | 50.52457 | -5.16532 | 2505 ft | 223 kts | 3° |
| 2026-05-09 19:56 | 50.54887 | -5.14323 | 2506 ft | 211 kts | 66° |
| 2026-05-09 19:56 | 50.55032 | -5.12077 | 2919 ft | 207 kts | 96° |
| 2026-05-09 19:56 | 50.54936 | -5.09751 | 3408 ft | 221 kts | 90° |
| 2026-05-09 19:56 | 50.54893 | -5.07345 | 3298 ft | 222 kts | 90° |
| 2026-05-09 19:57 | 50.54858 | -5.04948 | 3198 ft | 217 kts | 89° |
| 2026-05-09 19:57 | 50.54828 | -5.02606 | 3097 ft | 219 kts | 89° |
| 2026-05-09 19:57 | 50.54787 | -5.00191 | 3014 ft | 214 kts | 89° |
| 2026-05-09 19:57 | 50.54742 | -4.97812 | 3012 ft | 230 kts | 89° |
| 2026-05-09 19:58 | 50.54692 | -4.95181 | 3007 ft | 245 kts | 89° |
| 2026-05-09 19:58 | 50.54656 | -4.92543 | 2994 ft | 242 kts | 89° |
| 2026-05-09 19:58 | 50.54622 | -4.89893 | 2993 ft | 243 kts | 89° |
| 2026-05-09 19:58 | 50.54579 | -4.87225 | 3002 ft | 245 kts | 89° |
| 2026-05-09 19:59 | 50.54368 | -4.84567 | 3010 ft | 247 kts | 108° |
| 2026-05-09 19:59 | 50.53461 | -4.82284 | 2997 ft | 251 kts | 124° |
| 2026-05-09 19:59 | 50.52375 | -4.80127 | 2991 ft | 252 kts | 124° |
| 2026-05-09 19:59 | 50.51280 | -4.77964 | 3007 ft | 252 kts | 124° |
| 2026-05-09 20:00 | 50.50185 | -4.75807 | 2998 ft | 252 kts | 124° |
| 2026-05-09 20:00 | 50.49087 | -4.73648 | 2997 ft | 252 kts | 124° |
| 2026-05-09 20:00 | 50.47987 | -4.71495 | 3004 ft | 252 kts | 124° |
| 2026-05-09 20:00 | 50.46891 | -4.69354 | 3003 ft | 248 kts | 124° |
| 2026-05-09 20:01 | 50.45838 | -4.67304 | 3004 ft | 234 kts | 124° |
| 2026-05-09 20:01 | 50.44852 | -4.65420 | 2993 ft | 220 kts | 127° |
| 2026-05-09 20:01 | 50.43570 | -4.64111 | 2990 ft | 223 kts | 160° |
| 2026-05-09 20:01 | 50.42055 | -4.64129 | 3007 ft | 222 kts | 195° |
| 2026-05-09 20:02 | 50.40682 | -4.65259 | 2995 ft | 223 kts | 209° |
| 2026-05-09 20:02 | 50.39388 | -4.66514 | 3018 ft | 218 kts | 209° |
| 2026-05-09 20:02 | 50.38117 | -4.67772 | 2998 ft | 215 kts | 210° |
| 2026-05-09 20:03 | 50.35571 | -4.70279 | 2992 ft | 217 kts | 209° |
| 2026-05-09 20:03 | 50.34300 | -4.71534 | 2994 ft | 215 kts | 210° |
| 2026-05-09 20:03 | 50.33053 | -4.72763 | 3009 ft | 215 kts | 209° |
| 2026-05-09 20:03 | 50.31791 | -4.74015 | 2999 ft | 214 kts | 210° |
| 2026-05-09 20:04 | 50.30536 | -4.75263 | 3001 ft | 215 kts | 209° |
| 2026-05-09 20:04 | 50.29262 | -4.76518 | 2994 ft | 214 kts | 206° |
| 2026-05-09 20:04 | 50.27878 | -4.77097 | 3008 ft | 205 kts | 170° |
| 2026-05-09 20:04 | 50.26595 | -4.76344 | 3004 ft | 195 kts | 133° |
| 2026-05-09 20:05 | 50.25919 | -4.74618 | 2992 ft | 185 kts | 95° |
| 2026-05-09 20:05 | 50.26116 | -4.72657 | 3000 ft | 187 kts | 59° |
| 2026-05-09 20:05 | 50.27068 | -4.71353 | 2993 ft | 190 kts | 22° |
| 2026-05-09 20:05 | 50.28384 | -4.71284 | 3001 ft | 196 kts | 345° |
| 2026-05-09 20:06 | 50.29608 | -4.72313 | 3001 ft | 201 kts | 332° |
| 2026-05-09 20:06 | 50.30773 | -4.73467 | 2995 ft | 193 kts | 332° |
| 2026-05-09 20:06 | 50.31900 | -4.74597 | 3006 ft | 193 kts | 332° |
| 2026-05-09 20:06 | 50.33028 | -4.75727 | 3003 ft | 192 kts | 332° |
| 2026-05-09 20:07 | 50.34157 | -4.76863 | 3001 ft | 192 kts | 332° |
| 2026-05-09 20:07 | 50.35265 | -4.78064 | 2900 ft | 195 kts | 325° |
| 2026-05-09 20:07 | 50.36255 | -4.79516 | 2769 ft | 196 kts | 315° |
| 2026-05-09 20:07 | 50.37078 | -4.81248 | 2649 ft | 201 kts | 307° |
| 2026-05-09 20:08 | 50.37799 | -4.83080 | 2540 ft | 196 kts | 304° |
| 2026-05-09 20:08 | 50.39060 | -4.86392 | 2172 ft | 166 kts | 306° |
| 2026-05-09 20:08 | 50.39639 | -4.87912 | 1928 ft | 157 kts | 307° |
| 2026-05-09 20:09 | 50.40175 | -4.89320 | 1735 ft | 144 kts | 309° |
| 2026-05-09 20:09 | 50.40675 | -4.90631 | 1533 ft | 138 kts | 307° |
| 2026-05-09 20:09 | 50.41168 | -4.91920 | 1353 ft | 136 kts | 307° |
| 2026-05-09 20:09 | 50.41650 | -4.93183 | 1169 ft | 132 kts | 308° |
| 2026-05-09 20:10 | 50.42102 | -4.94373 | 977 ft | 125 kts | 309° |
| 2026-05-09 20:10 | 50.42551 | -4.95548 | 811 ft | 125 kts | 309° |
| 2026-05-09 20:10 | 50.42992 | -4.96703 | 650 ft | 124 kts | 309° |
| 2026-05-09 20:10 | 50.43434 | -4.97858 | 478 ft | 124 kts | 309° |
| 2026-05-09 20:11 | 50.43878 | -4.98995 | 375 ft | 116 kts | 302° |
| 2026-05-09 20:11 | 50.44365 | -5.00307 | 542 ft | 153 kts | 304° |
| 2026-05-09 20:11 | 50.44889 | -5.01800 | 1272 ft | 159 kts | 304° |
| 2026-05-09 20:11 | 50.45360 | -5.03439 | 2124 ft | 170 kts | 299° |
| 2026-05-09 20:12 | 50.45843 | -5.05197 | 2821 ft | 184 kts | 298° |
| 2026-05-09 20:12 | 50.46412 | -5.07129 | 3299 ft | 202 kts | 299° |
| 2026-05-09 20:12 | 50.47009 | -5.09137 | 3468 ft | 203 kts | 299° |
| 2026-05-09 20:12 | 50.47607 | -5.11151 | 3496 ft | 203 kts | 299° |
| 2026-05-09 20:13 | 50.48195 | -5.13132 | 3502 ft | 202 kts | 299° |
| 2026-05-09 20:13 | 50.48816 | -5.15114 | 3490 ft | 201 kts | 310° |
| 2026-05-09 20:13 | 50.49882 | -5.16406 | 3501 ft | 204 kts | 349° |
| 2026-05-09 20:13 | 50.51392 | -5.16424 | 3507 ft | 237 kts | 21° |
| 2026-05-09 20:14 | 50.52816 | -5.15047 | 3503 ft | 245 kts | 50° |
| 2026-05-09 20:14 | 50.53593 | -5.12708 | 3499 ft | 242 kts | 79° |
| 2026-05-09 20:14 | 50.53669 | -5.10075 | 3501 ft | 242 kts | 89° |
| 2026-05-09 20:14 | 50.53661 | -5.07396 | 3502 ft | 248 kts | 89° |
| 2026-05-09 20:15 | 50.53645 | -5.04671 | 3499 ft | 250 kts | 89° |
| 2026-05-09 20:15 | 50.53625 | -5.01935 | 3495 ft | 250 kts | 89° |
| 2026-05-09 20:15 | 50.53602 | -4.99200 | 3500 ft | 249 kts | 89° |
| 2026-05-09 20:15 | 50.53573 | -4.96496 | 3501 ft | 254 kts | 89° |
| 2026-05-09 20:16 | 50.53544 | -4.93697 | 3499 ft | 257 kts | 89° |
| 2026-05-09 20:16 | 50.53202 | -4.90969 | 3501 ft | 258 kts | 113° |
| 2026-05-09 20:16 | 50.52269 | -4.88530 | 3502 ft | 261 kts | 119° |
| 2026-05-09 20:16 | 50.51291 | -4.86128 | 3502 ft | 261 kts | 119° |
| 2026-05-09 20:17 | 50.50304 | -4.83718 | 3498 ft | 263 kts | 119° |
| 2026-05-09 20:17 | 50.49316 | -4.81289 | 3497 ft | 263 kts | 119° |
| 2026-05-09 20:17 | 50.48333 | -4.78861 | 3502 ft | 263 kts | 119° |
| 2026-05-09 20:17 | 50.47353 | -4.76436 | 3501 ft | 262 kts | 119° |
| 2026-05-09 20:18 | 50.46378 | -4.74023 | 3500 ft | 265 kts | 119° |
| 2026-05-09 20:18 | 50.45394 | -4.71580 | 3501 ft | 268 kts | 119° |
| 2026-05-09 20:18 | 50.44392 | -4.69153 | 3451 ft | 265 kts | 124° |
| 2026-05-09 20:18 | 50.42961 | -4.67301 | 3203 ft | 271 kts | 152° |
| 2026-05-09 20:19 | 50.41107 | -4.66701 | 3039 ft | 280 kts | 179° |
| 2026-05-09 20:19 | 50.39192 | -4.67429 | 2923 ft | 287 kts | 199° |
| 2026-05-09 20:19 | 50.37402 | -4.68787 | 2790 ft | 285 kts | 213° |
| 2026-05-09 20:19 | 50.35874 | -4.70741 | 2621 ft | 278 kts | 219° |
| 2026-05-09 20:20 | 50.34457 | -4.72663 | 2512 ft | 260 kts | 219° |
| 2026-05-09 20:20 | 50.33172 | -4.74414 | 2492 ft | 236 kts | 219° |
| 2026-05-09 20:20 | 50.32003 | -4.76089 | 2488 ft | 213 kts | 218° |
| 2026-05-09 20:20 | 50.30715 | -4.77037 | 2500 ft | 210 kts | 181° |
| 2026-05-09 20:21 | 50.29346 | -4.76677 | 2508 ft | 197 kts | 144° |
| 2026-05-09 20:21 | 50.28466 | -4.75190 | 2499 ft | 184 kts | 106° |
| 2026-05-09 20:21 | 50.28421 | -4.73270 | 2504 ft | 177 kts | 68° |
| 2026-05-09 20:21 | 50.29205 | -4.71815 | 2499 ft | 183 kts | 30° |
| 2026-05-09 20:22 | 50.30464 | -4.71513 | 2498 ft | 192 kts | 351° |
| 2026-05-09 20:22 | 50.31644 | -4.72430 | 2502 ft | 199 kts | 330° |
| 2026-05-09 20:22 | 50.32758 | -4.73668 | 2502 ft | 198 kts | 329° |
| 2026-05-09 20:22 | 50.33876 | -4.74932 | 2496 ft | 199 kts | 328° |
| 2026-05-09 20:23 | 50.34868 | -4.76466 | 2499 ft | 203 kts | 315° |
| 2026-05-09 20:23 | 50.35759 | -4.78154 | 2516 ft | 194 kts | 312° |
| 2026-05-09 20:23 | 50.36497 | -4.79795 | 2489 ft | 173 kts | 308° |
| 2026-05-09 20:23 | 50.37088 | -4.81276 | 2515 ft | 159 kts | 308° |
| 2026-05-09 20:24 | 50.37665 | -4.82739 | 2486 ft | 158 kts | 307° |
| 2026-05-09 20:24 | 50.38186 | -4.84108 | 2497 ft | 146 kts | 308° |
| 2026-05-09 20:24 | 50.38713 | -4.85469 | 2318 ft | 143 kts | 307° |
| 2026-05-09 20:24 | 50.39216 | -4.86798 | 2119 ft | 142 kts | 309° |
| 2026-05-09 20:25 | 50.39722 | -4.88121 | 1999 ft | 143 kts | 309° |
| 2026-05-09 20:25 | 50.40261 | -4.89521 | 1751 ft | 159 kts | 309° |
| 2026-05-09 20:25 | 50.40814 | -4.90995 | 1477 ft | 149 kts | 306° |
| 2026-05-09 20:25 | 50.41316 | -4.92312 | 1287 ft | 139 kts | 307° |
| 2026-05-09 20:26 | 50.41797 | -4.93575 | 1099 ft | 129 kts | 309° |
| 2026-05-09 20:26 | 50.42248 | -4.94758 | 924 ft | 121 kts | 309° |
| 2026-05-09 20:26 | 50.42690 | -4.95908 | 769 ft | 125 kts | 309° |
| 2026-05-09 20:26 | 50.43131 | -4.97075 | 610 ft | 125 kts | 309° |
| 2026-05-09 20:27 | 50.43604 | -4.98281 | 947 ft | 136 kts | 309° |
| 2026-05-09 20:27 | 50.44125 | -4.99598 | 1485 ft | 149 kts | 309° |
| 2026-05-09 20:27 | 50.44677 | -5.01023 | 2126 ft | 153 kts | 308° |
| 2026-05-09 20:27 | 50.45225 | -5.02514 | 2730 ft | 170 kts | 306° |
| 2026-05-09 20:28 | 50.45861 | -5.04225 | 3234 ft | 191 kts | 305° |
| 2026-05-09 20:28 | 50.46558 | -5.06092 | 3469 ft | 201 kts | 305° |
| 2026-05-09 20:28 | 50.47263 | -5.07974 | 3501 ft | 200 kts | 305° |
| 2026-05-09 20:29 | 50.49256 | -5.10375 | 3501 ft | 181 kts | 7° |
| 2026-05-09 20:29 | 50.50362 | -5.09717 | 3500 ft | 166 kts | 48° |
| 2026-05-09 20:29 | 50.50826 | -5.08120 | 3503 ft | 164 kts | 86° |
| 2026-05-09 20:29 | 50.50835 | -5.06306 | 3498 ft | 167 kts | 89° |
| 2026-05-09 20:30 | 50.50822 | -5.04448 | 3492 ft | 185 kts | 89° |
| 2026-05-09 20:30 | 50.50810 | -5.02160 | 3507 ft | 231 kts | 89° |
| 2026-05-09 20:30 | 50.50792 | -4.99544 | 3500 ft | 244 kts | 89° |
| 2026-05-09 20:30 | 50.50773 | -4.96870 | 3502 ft | 244 kts | 89° |
| 2026-05-09 20:31 | 50.50746 | -4.94249 | 3503 ft | 244 kts | 89° |
| 2026-05-09 20:31 | 50.50714 | -4.91549 | 3500 ft | 245 kts | 90° |
| 2026-05-09 20:31 | 50.50437 | -4.88905 | 3501 ft | 248 kts | 111° |
| 2026-05-09 20:31 | 50.49554 | -4.86554 | 3500 ft | 250 kts | 119° |
| 2026-05-09 20:32 | 50.48616 | -4.84242 | 3500 ft | 250 kts | 119° |
| 2026-05-09 20:32 | 50.47677 | -4.81939 | 3500 ft | 250 kts | 119° |
| 2026-05-09 20:32 | 50.47051 | -4.80417 | 3504 ft | 250 kts | 119° |
| 2026-05-09 20:32 | 50.46093 | -4.78110 | 3500 ft | 252 kts | 120° |
| 2026-05-09 20:33 | 50.45105 | -4.75700 | 3501 ft | 276 kts | 120° |
| 2026-05-09 20:33 | 50.43740 | -4.72338 | 3339 ft | 272 kts | 119° |
| 2026-05-09 20:33 | 50.43046 | -4.70658 | 3203 ft | 272 kts | 123° |
| 2026-05-09 20:33 | 50.41618 | -4.68681 | 3015 ft | 280 kts | 149° |
| 2026-05-09 20:34 | 50.39755 | -4.67905 | 2867 ft | 284 kts | 175° |
| 2026-05-09 20:34 | 50.37844 | -4.68504 | 2711 ft | 282 kts | 203° |
| 2026-05-09 20:34 | 50.36326 | -4.70362 | 2557 ft | 277 kts | 232° |
| 2026-05-09 20:34 | 50.35529 | -4.73093 | 2500 ft | 273 kts | 262° |
| 2026-05-09 20:35 | 50.35530 | -4.75941 | 2507 ft | 251 kts | 285° |
| 2026-05-09 20:35 | 50.36075 | -4.78404 | 2504 ft | 227 kts | 300° |
| 2026-05-09 20:35 | 50.36754 | -4.80388 | 2480 ft | 186 kts | 306° |
| 2026-05-09 20:35 | 50.37365 | -4.81968 | 2499 ft | 165 kts | 308° |
| 2026-05-09 20:36 | 50.37946 | -4.83477 | 2495 ft | 155 kts | 308° |
| 2026-05-09 20:36 | 50.38534 | -4.84987 | 2394 ft | 166 kts | 308° |
| 2026-05-09 20:36 | 50.39111 | -4.86526 | 2140 ft | 160 kts | 308° |
| 2026-05-09 20:36 | 50.39684 | -4.88021 | 1925 ft | 159 kts | 309° |
| 2026-05-09 20:37 | 50.40233 | -4.89464 | 1721 ft | 157 kts | 309° |
| 2026-05-09 20:37 | 50.40794 | -4.90925 | 1489 ft | 155 kts | 307° |
| 2026-05-09 20:37 | 50.41345 | -4.92389 | 1296 ft | 147 kts | 307° |
| 2026-05-09 20:37 | 50.41849 | -4.93710 | 1088 ft | 135 kts | 308° |
| 2026-05-09 20:38 | 50.42294 | -4.94885 | 901 ft | 117 kts | 309° |
| 2026-05-09 20:38 | 50.42723 | -4.95995 | 762 ft | 122 kts | 310° |
| 2026-05-09 20:38 | 50.43161 | -4.97142 | 572 ft | 122 kts | 309° |
| 2026-05-09 20:38 | 50.43605 | -4.98301 | 439 ft | 125 kts | 308° |
| 2026-05-09 20:39 | 50.44051 | -4.99442 | 363 ft | 129 kts | 300° |
| 2026-05-09 20:39 | 50.44555 | -5.00825 | 726 ft | 152 kts | 307° |
| 2026-05-09 20:39 | 50.45106 | -5.02276 | 1499 ft | 159 kts | 307° |
| 2026-05-09 20:39 | 50.45681 | -5.03831 | 2351 ft | 170 kts | 307° |
| 2026-05-09 20:40 | 50.46319 | -5.05495 | 2984 ft | 187 kts | 307° |
| 2026-05-09 20:40 | 50.47036 | -5.07288 | 3398 ft | 198 kts | 307° |
| 2026-05-09 20:40 | 50.47779 | -5.09121 | 3496 ft | 199 kts | 307° |
| 2026-05-09 20:40 | 50.48525 | -5.10948 | 3501 ft | 199 kts | 307° |
| 2026-05-09 20:41 | 50.49272 | -5.12773 | 3499 ft | 198 kts | 307° |
| 2026-05-09 20:41 | 50.50007 | -5.14570 | 3498 ft | 198 kts | 307° |
| 2026-05-09 20:41 | 50.50742 | -5.16388 | 3582 ft | 196 kts | 307° |
| 2026-05-09 20:41 | 50.51559 | -5.18122 | 3849 ft | 206 kts | 319° |
| 2026-05-09 20:42 | 50.52675 | -5.19819 | 4107 ft | 241 kts | 321° |
| 2026-05-09 20:42 | 50.53998 | -5.21736 | 4399 ft | 278 kts | 321° |
| 2026-05-09 20:42 | 50.55519 | -5.23901 | 4681 ft | 311 kts | 321° |
| 2026-05-09 20:42 | 50.57175 | -5.26236 | 4931 ft | 325 kts | 321° |
| 2026-05-09 20:43 | 50.58865 | -5.28612 | 5006 ft | 326 kts | 321° |
| 2026-05-09 20:43 | 50.60552 | -5.30993 | 5017 ft | 326 kts | 321° |
| 2026-05-09 20:43 | 50.62235 | -5.33373 | 5016 ft | 325 kts | 321° |
| 2026-05-09 20:43 | 50.63920 | -5.35768 | 5023 ft | 326 kts | 321° |
| 2026-05-09 20:44 | 50.65571 | -5.38121 | 5025 ft | 326 kts | 321° |
| 2026-05-09 20:44 | 50.67292 | -5.40505 | 5033 ft | 336 kts | 324° |
| 2026-05-09 20:44 | 50.69196 | -5.42956 | 5034 ft | 369 kts | 324° |
| 2026-05-09 20:44 | 50.71219 | -5.45550 | 5036 ft | 375 kts | 324° |
| 2026-05-09 20:45 | 50.73246 | -5.48139 | 5038 ft | 376 kts | 324° |
| 2026-05-09 20:45 | 50.75430 | -5.50303 | 5034 ft | 368 kts | 341° |
| 2026-05-09 20:45 | 50.77907 | -5.51153 | 5038 ft | 362 kts | 1° |
| 2026-05-09 20:45 | 50.80362 | -5.50579 | 5039 ft | 355 kts | 21° |
| 2026-05-09 20:46 | 50.82496 | -5.48679 | 5040 ft | 353 kts | 41° |
| 2026-05-09 20:46 | 50.84051 | -5.45701 | 5041 ft | 351 kts | 62° |
| 2026-05-09 20:46 | 50.84805 | -5.42098 | 5042 ft | 353 kts | 82° |
| 2026-05-09 20:46 | 50.84694 | -5.38248 | 5037 ft | 355 kts | 102° |
| 2026-05-09 20:47 | 50.83704 | -5.34669 | 5036 ft | 357 kts | 122° |
| 2026-05-09 20:47 | 50.81959 | -5.31871 | 5043 ft | 362 kts | 142° |
| 2026-05-09 20:47 | 50.79660 | -5.30208 | 5036 ft | 369 kts | 163° |
| 2026-05-09 20:47 | 50.77080 | -5.29923 | 5034 ft | 376 kts | 184° |
| 2026-05-09 20:48 | 50.74528 | -5.31100 | 5029 ft | 383 kts | 205° |
| 2026-05-09 20:48 | 50.72353 | -5.33557 | 5035 ft | 388 kts | 220° |
| 2026-05-09 20:48 | 50.70144 | -5.35950 | 5032 ft | 383 kts | 202° |
| 2026-05-09 20:48 | 50.67626 | -5.37062 | 5031 ft | 371 kts | 182° |
| 2026-05-09 20:49 | 50.65098 | -5.36769 | 5026 ft | 364 kts | 162° |
| 2026-05-09 20:49 | 50.62861 | -5.35173 | 5023 ft | 355 kts | 142° |
| 2026-05-09 20:49 | 50.61178 | -5.32506 | 5016 ft | 332 kts | 121° |
| 2026-05-09 20:49 | 50.60336 | -5.29311 | 5014 ft | 306 kts | 98° |
| 2026-05-09 20:50 | 50.60399 | -5.26114 | 5014 ft | 286 kts | 75° |
| 2026-05-09 20:50 | 50.61328 | -5.23333 | 5011 ft | 297 kts | 52° |
| 2026-05-09 20:50 | 50.62747 | -5.20847 | 5012 ft | 309 kts | 49° |
| 2026-05-09 20:50 | 50.64195 | -5.18359 | 5011 ft | 306 kts | 47° |
| 2026-05-09 20:51 | 50.65919 | -5.16456 | 5015 ft | 308 kts | 25° |
| 2026-05-09 20:51 | 50.68046 | -5.15812 | 5019 ft | 317 kts | 2° |
| 2026-05-09 20:51 | 50.70240 | -5.16213 | 5023 ft | 321 kts | 347° |
| 2026-05-09 20:51 | 50.72243 | -5.17827 | 5027 ft | 329 kts | 324° |
| 2026-05-09 20:52 | 50.73730 | -5.20607 | 5029 ft | 336 kts | 300° |
| 2026-05-09 20:52 | 50.74442 | -5.24130 | 5029 ft | 342 kts | 277° |
| 2026-05-09 20:52 | 50.74260 | -5.27788 | 5029 ft | 336 kts | 253° |
| 2026-05-09 20:52 | 50.73326 | -5.31049 | 5034 ft | 319 kts | 232° |
| 2026-05-09 20:53 | 50.71753 | -5.33347 | 5027 ft | 300 kts | 206° |
| 2026-05-09 20:53 | 50.69812 | -5.34325 | 5029 ft | 291 kts | 179° |
| 2026-05-09 20:53 | 50.67913 | -5.33918 | 5027 ft | 287 kts | 155° |
| 2026-05-09 20:53 | 50.66289 | -5.32221 | 5023 ft | 277 kts | 128° |
| 2026-05-09 20:54 | 50.65368 | -5.29610 | 5022 ft | 273 kts | 102° |
| 2026-05-09 20:54 | 50.65210 | -5.26625 | 5017 ft | 275 kts | 89° |
| 2026-05-09 20:54 | 50.65323 | -5.23610 | 5019 ft | 282 kts | 81° |
| 2026-05-09 20:54 | 50.65678 | -5.20416 | 5016 ft | 307 kts | 79° |
| 2026-05-09 20:55 | 50.66062 | -5.17132 | 5020 ft | 311 kts | 79° |
| 2026-05-09 20:55 | 50.66479 | -5.13556 | 5015 ft | 342 kts | 79° |
| 2026-05-09 20:55 | 50.66917 | -5.09824 | 5014 ft | 347 kts | 79° |
| 2026-05-09 20:55 | 50.67346 | -5.06181 | 5014 ft | 345 kts | 79° |
| 2026-05-09 20:56 | 50.67787 | -5.02456 | 5013 ft | 346 kts | 79° |
| 2026-05-09 20:56 | 50.68676 | -4.94971 | 5017 ft | 345 kts | 79° |
| 2026-05-09 20:56 | 50.69113 | -4.91278 | 5011 ft | 345 kts | 79° |
| 2026-05-09 20:57 | 50.69640 | -4.87540 | 5013 ft | 346 kts | 71° |
| 2026-05-09 20:57 | 50.70833 | -4.84287 | 5015 ft | 348 kts | 50° |
| 2026-05-09 20:57 | 50.72725 | -4.81914 | 5020 ft | 351 kts | 31° |
| 2026-05-09 20:57 | 50.74922 | -4.80129 | 5024 ft | 352 kts | 29° |
| 2026-05-09 20:58 | 50.77127 | -4.78433 | 5022 ft | 353 kts | 22° |
| 2026-05-09 20:58 | 50.79554 | -4.77781 | 5026 ft | 354 kts | 1° |
| 2026-05-09 20:58 | 50.81878 | -4.78544 | 5031 ft | 333 kts | 339° |
| 2026-05-09 20:58 | 50.83749 | -4.80573 | 5035 ft | 326 kts | 315° |
| 2026-05-09 20:59 | 50.84982 | -4.83636 | 5030 ft | 336 kts | 292° |
| 2026-05-09 20:59 | 50.85375 | -4.87177 | 5024 ft | 317 kts | 268° |
| 2026-05-09 20:59 | 50.84886 | -4.90348 | 5029 ft | 290 kts | 242° |
| 2026-05-09 21:00 | 50.81931 | -4.93816 | 5035 ft | 276 kts | 184° |
| 2026-05-09 21:00 | 50.80072 | -4.93564 | 5035 ft | 266 kts | 155° |
| 2026-05-09 21:00 | 50.78442 | -4.92202 | 5030 ft | 274 kts | 144° |
| 2026-05-09 21:00 | 50.76752 | -4.90536 | 5027 ft | 290 kts | 144° |
| 2026-05-09 21:01 | 50.75050 | -4.88849 | 5017 ft | 287 kts | 144° |
| 2026-05-09 21:01 | 50.73320 | -4.87117 | 5018 ft | 312 kts | 144° |
| 2026-05-09 21:01 | 50.71384 | -4.85155 | 5022 ft | 348 kts | 144° |
| 2026-05-09 21:02 | 50.67334 | -4.81054 | 5014 ft | 344 kts | 144° |
| 2026-05-09 21:02 | 50.65369 | -4.78886 | 5013 ft | 344 kts | 134° |
| 2026-05-09 21:02 | 50.63960 | -4.75887 | 5013 ft | 338 kts | 113° |
| 2026-05-09 21:02 | 50.63398 | -4.72354 | 5010 ft | 327 kts | 91° |
| 2026-05-09 21:03 | 50.63708 | -4.68937 | 5015 ft | 305 kts | 75° |
| 2026-05-09 21:03 | 50.64263 | -4.65819 | 5007 ft | 285 kts | 74° |
| 2026-05-09 21:03 | 50.64784 | -4.62912 | 5009 ft | 267 kts | 74° |
| 2026-05-09 21:03 | 50.65279 | -4.60183 | 5014 ft | 251 kts | 72° |
| 2026-05-09 21:04 | 50.66196 | -4.57852 | 5017 ft | 257 kts | 44° |
| 2026-05-09 21:04 | 50.67753 | -4.56484 | 5022 ft | 262 kts | 17° |
| 2026-05-09 21:04 | 50.69586 | -4.56464 | 5019 ft | 270 kts | 348° |
| 2026-05-09 21:04 | 50.71255 | -4.57832 | 5018 ft | 275 kts | 320° |
| 2026-05-09 21:05 | 50.72350 | -4.60266 | 5023 ft | 281 kts | 292° |
| 2026-05-09 21:05 | 50.72642 | -4.63356 | 5021 ft | 285 kts | 264° |
| 2026-05-09 21:05 | 50.72038 | -4.66256 | 5019 ft | 282 kts | 236° |
| 2026-05-09 21:05 | 50.70683 | -4.68420 | 5023 ft | 280 kts | 211° |
| 2026-05-09 21:06 | 50.69027 | -4.70066 | 5018 ft | 279 kts | 209° |
| 2026-05-09 21:06 | 50.67387 | -4.71689 | 4956 ft | 280 kts | 209° |
| 2026-05-09 21:06 | 50.65735 | -4.73321 | 4697 ft | 279 kts | 209° |
| 2026-05-09 21:06 | 50.64108 | -4.74976 | 4431 ft | 280 kts | 216° |
| 2026-05-09 21:07 | 50.62804 | -4.77455 | 4189 ft | 314 kts | 242° |
| 2026-05-09 21:07 | 50.62188 | -4.80776 | 3943 ft | 320 kts | 266° |
| 2026-05-09 21:07 | 50.62285 | -4.84248 | 3691 ft | 316 kts | 271° |
| 2026-05-09 21:07 | 50.61863 | -4.87639 | 3529 ft | 317 kts | 246° |
| 2026-05-09 21:08 | 50.60642 | -4.90369 | 3501 ft | 294 kts | 219° |
| 2026-05-09 21:08 | 50.58950 | -4.91872 | 3504 ft | 276 kts | 191° |
| 2026-05-09 21:08 | 50.57090 | -4.91999 | 3500 ft | 267 kts | 163° |
| 2026-05-09 21:08 | 50.55342 | -4.90888 | 3504 ft | 286 kts | 149° |
| 2026-05-09 21:09 | 50.53517 | -4.89427 | 3503 ft | 296 kts | 149° |
| 2026-05-09 21:09 | 50.51688 | -4.87960 | 3500 ft | 290 kts | 148° |
| 2026-05-09 21:09 | 50.50176 | -4.86006 | 3498 ft | 278 kts | 123° |
| 2026-05-09 21:09 | 50.49092 | -4.83413 | 3499 ft | 289 kts | 119° |
| 2026-05-09 21:10 | 50.48020 | -4.80756 | 3497 ft | 287 kts | 119° |
| 2026-05-09 21:10 | 50.46959 | -4.78138 | 3502 ft | 287 kts | 119° |
| 2026-05-09 21:10 | 50.45911 | -4.75551 | 3499 ft | 287 kts | 119° |
| 2026-05-09 21:10 | 50.44835 | -4.72898 | 3501 ft | 286 kts | 119° |
| 2026-05-09 21:11 | 50.43796 | -4.70346 | 3502 ft | 285 kts | 119° |
| 2026-05-09 21:12 | 50.39976 | -4.61059 | 3494 ft | 220 kts | 109° |
| 2026-05-09 21:12 | 50.39803 | -4.58829 | 3511 ft | 212 kts | 77° |
| 2026-05-09 21:12 | 50.40495 | -4.56803 | 3497 ft | 214 kts | 45° |
| 2026-05-09 21:12 | 50.41807 | -4.55758 | 3505 ft | 219 kts | 12° |
| 2026-05-09 21:13 | 50.43363 | -4.55810 | 3501 ft | 227 kts | 359° |
| 2026-05-09 21:13 | 50.44909 | -4.56326 | 3499 ft | 233 kts | 338° |
| 2026-05-09 21:13 | 50.46154 | -4.58055 | 3507 ft | 250 kts | 306° |
| 2026-05-09 21:13 | 50.46708 | -4.60647 | 3508 ft | 256 kts | 274° |
| 2026-05-09 21:14 | 50.46362 | -4.63493 | 3508 ft | 290 kts | 244° |
| 2026-05-09 21:14 | 50.45135 | -4.66042 | 3497 ft | 295 kts | 216° |
| 2026-05-09 21:14 | 50.43473 | -4.67805 | 3502 ft | 281 kts | 209° |
| 2026-05-09 21:14 | 50.41871 | -4.69404 | 3498 ft | 265 kts | 209° |
| 2026-05-09 21:15 | 50.40357 | -4.70919 | 3497 ft | 256 kts | 209° |
| 2026-05-09 21:15 | 50.38825 | -4.72444 | 3305 ft | 262 kts | 209° |
| 2026-05-09 21:15 | 50.37310 | -4.74000 | 3045 ft | 260 kts | 216° |
| 2026-05-09 21:15 | 50.36300 | -4.76264 | 2796 ft | 259 kts | 254° |
| 2026-05-09 21:16 | 50.36300 | -4.78972 | 2547 ft | 241 kts | 294° |
| 2026-05-09 21:16 | 50.36998 | -4.81177 | 2513 ft | 211 kts | 306° |
| 2026-05-09 21:16 | 50.37696 | -4.82945 | 2490 ft | 172 kts | 308° |
| 2026-05-09 21:16 | 50.38265 | -4.84379 | 2504 ft | 146 kts | 309° |
| 2026-05-09 21:17 | 50.38797 | -4.85712 | 2502 ft | 146 kts | 309° |
| 2026-05-09 21:17 | 50.39375 | -4.87201 | 2503 ft | 164 kts | 307° |
| 2026-05-09 21:17 | 50.39970 | -4.88768 | 2189 ft | 174 kts | 307° |
| 2026-05-09 21:17 | 50.40567 | -4.90378 | 1774 ft | 165 kts | 307° |
| 2026-05-09 21:18 | 50.41144 | -4.91871 | 1400 ft | 158 kts | 309° |
| 2026-05-09 21:18 | 50.41681 | -4.93274 | 1165 ft | 142 kts | 308° |
| 2026-05-09 21:18 | 50.42008 | -4.94127 | 1038 ft | 134 kts | 307° |
| 2026-05-09 21:18 | 50.42461 | -4.95323 | 846 ft | 121 kts | 307° |
| 2026-05-09 21:19 | 50.43734 | -4.98646 | 392 ft | 121 kts | 308° |
| 2026-05-09 21:19 | 50.44192 | -4.99846 | 365 ft | 128 kts | 307° |
| 2026-05-09 21:20 | 50.44688 | -5.01142 | 546 ft | 153 kts | 308° |
| 2026-05-09 21:20 | 50.45223 | -5.02513 | 1309 ft | 146 kts | 309° |
| 2026-05-09 21:20 | 50.45755 | -5.03877 | 2113 ft | 144 kts | 311° |
| 2026-05-09 21:20 | 50.46314 | -5.05282 | 2755 ft | 164 kts | 309° |
| 2026-05-09 21:21 | 50.46948 | -5.06865 | 3295 ft | 185 kts | 308° |
| 2026-05-09 21:21 | 50.47656 | -5.08645 | 3478 ft | 195 kts | 307° |
| 2026-05-09 21:21 | 50.48366 | -5.10451 | 3500 ft | 194 kts | 307° |
| 2026-05-09 21:21 | 50.49078 | -5.12261 | 3501 ft | 195 kts | 307° |
| 2026-05-09 21:22 | 50.49789 | -5.14067 | 3500 ft | 194 kts | 307° |
| 2026-05-09 21:22 | 50.50485 | -5.15839 | 3499 ft | 195 kts | 307° |
| 2026-05-09 21:22 | 50.51171 | -5.17585 | 3503 ft | 195 kts | 307° |
| 2026-05-09 21:22 | 50.51924 | -5.19353 | 3498 ft | 192 kts | 321° |
| 2026-05-09 21:23 | 50.53045 | -5.20250 | 3504 ft | 177 kts | 2° |
| 2026-05-09 21:23 | 50.54159 | -5.19794 | 3501 ft | 163 kts | 43° |
| 2026-05-09 21:23 | 50.54698 | -5.18308 | 3504 ft | 161 kts | 84° |
| 2026-05-09 21:23 | 50.54382 | -5.16614 | 3450 ft | 172 kts | 124° |
| 2026-05-09 21:24 | 50.53341 | -5.15624 | 3220 ft | 184 kts | 164° |
| 2026-05-09 21:24 | 50.52059 | -5.15402 | 2970 ft | 186 kts | 169° |
| 2026-05-09 21:24 | 50.50740 | -5.15235 | 2729 ft | 199 kts | 169° |
| 2026-05-09 21:24 | 50.49423 | -5.15008 | 2498 ft | 197 kts | 160° |
| 2026-05-09 21:25 | 50.48308 | -5.13995 | 2263 ft | 183 kts | 122° |
| 2026-05-09 21:25 | 50.47881 | -5.12233 | 2037 ft | 172 kts | 98° |
| 2026-05-09 21:25 | 50.47650 | -5.10387 | 1666 ft | 169 kts | 94° |
| 2026-05-09 21:25 | 50.47381 | -5.08637 | 1306 ft | 162 kts | 103° |
| 2026-05-09 21:26 | 50.46925 | -5.07065 | 1001 ft | 155 kts | 115° |
| 2026-05-09 21:26 | 50.46334 | -5.05707 | 747 ft | 144 kts | 115° |
| 2026-05-09 21:26 | 50.45874 | -5.04342 | 688 ft | 147 kts | 111° |
| 2026-05-09 21:26 | 50.45356 | -5.02948 | 532 ft | 148 kts | 111° |
| 2026-05-09 21:27 | 50.44837 | -5.01565 | 369 ft | 145 kts | 115° |
| 2026-05-09 21:27 | 50.44363 | -5.00293 | 335 ft | 114 kts | 120° |
| 2026-05-09 21:27 | 50.44116 | -4.99629 | 360 ft | 36 kts | 124° |
| 2026-05-09 21:27 | 50.44057 | -4.99513 | 362 ft | 9 kts | 139° |
| 2026-05-09 21:28 | 50.43933 | -4.99509 | 355 ft | 15 kts | 182° |
| 2026-05-09 21:28 | 50.43811 | -4.99517 | 365 ft | 19 kts | 182° |
| 2026-05-09 21:28 | 50.43708 | -4.99523 | 366 ft | 6 kts | 188° |
| 2026-05-09 21:28 | 50.43679 | -4.99577 | 371 ft | 0 kts | 246° |